createdAt,value
2022-11-15T00:09:46.227Z,10.71
2022-11-15T00:39:50.426Z,10.60
2022-11-15T01:09:54.552Z,10.56
2022-11-15T01:39:58.774Z,10.20
2022-11-15T02:10:08.069Z,10.28
2022-11-15T02:40:18.721Z,10.34
2022-11-15T04:12:47.151Z,10.51
2022-11-15T04:42:51.298Z,10.05
2022-11-15T05:12:55.440Z,9.73
2022-11-15T05:42:59.761Z,9.61
2022-11-15T06:13:05.348Z,9.60
2022-11-15T06:43:09.565Z,9.63
2022-11-15T07:13:13.732Z,10.09
2022-11-15T07:43:17.843Z,10.30
2022-11-15T08:13:22.244Z,10.50
2022-11-15T08:43:26.526Z,10.54
2022-11-15T09:13:31.122Z,10.85
2022-11-15T09:43:43.011Z,11.17
2022-11-15T10:13:49.076Z,12.02
2022-11-15T10:44:13.130Z,13.03
2022-11-15T11:14:23.389Z,14.28
2022-11-15T11:44:35.725Z,17.00
2022-11-15T12:14:43.954Z,14.83
2022-11-15T12:45:01.054Z,12.82
2022-11-15T13:15:39.672Z,12.80
2022-11-15T13:45:46.910Z,12.67
2022-11-15T14:41:48.640Z,12.30
2022-11-15T15:11:55.546Z,12.00
2022-11-15T15:41:59.700Z,11.88
2022-11-15T16:12:03.766Z,11.66
2022-11-15T16:42:08.051Z,11.31
2022-11-15T17:12:12.360Z,11.08
2022-11-15T17:42:16.615Z,10.89
2022-11-15T18:12:21.067Z,11.06
2022-11-15T18:42:25.269Z,11.18
2022-11-15T19:12:29.443Z,11.24
2022-11-15T19:42:33.589Z,11.35
2022-11-15T20:12:37.698Z,11.28
2022-11-15T20:42:41.913Z,11.06
2022-11-15T21:12:45.968Z,10.92
2022-11-15T21:42:49.985Z,10.85
2022-11-15T22:12:53.978Z,10.93
2022-11-15T22:42:58.111Z,10.98
2022-11-15T23:13:17.106Z,10.64
2022-11-15T23:43:23.219Z,10.53
